createdAt,value
2023-02-11T00:00:21.862Z,4.63
2023-02-11T00:02:48.492Z,4.66
2023-02-11T00:05:15.627Z,4.67
2023-02-11T00:07:42.257Z,4.70
2023-02-11T00:10:09.390Z,4.70
2023-02-11T00:12:37.388Z,4.71
2023-02-11T00:15:06.008Z,4.73
2023-02-11T00:17:32.682Z,4.75
2023-02-11T00:19:59.422Z,4.74
2023-02-11T00:22:26.184Z,4.75
2023-02-11T00:24:52.842Z,4.76
2023-02-11T00:27:19.589Z,4.74
2023-02-11T00:29:46.348Z,4.79
2023-02-11T00:32:13.020Z,4.82
2023-02-11T00:34:39.703Z,4.80
2023-02-11T00:37:06.727Z,4.82
2023-02-11T00:39:33.400Z,4.84
2023-02-11T00:42:00.229Z,4.85
2023-02-11T00:44:26.895Z,4.87
2023-02-11T00:46:53.537Z,4.87
2023-02-11T00:49:20.296Z,4.90
2023-02-11T00:51:46.992Z,4.90
2023-02-11T00:54:13.646Z,4.90
2023-02-11T00:56:40.271Z,4.91
2023-02-11T00:59:06.942Z,4.92
2023-02-11T01:01:34.565Z,4.93
2023-02-11T01:04:01.298Z,4.95
2023-02-11T01:06:27.935Z,4.93
2023-02-11T01:08:54.663Z,4.95
2023-02-11T01:11:21.840Z,4.94
2023-02-11T01:13:49.870Z,4.94
2023-02-11T01:16:18.292Z,4.95
2023-02-11T01:18:46.062Z,4.93
2023-02-11T01:21:12.772Z,4.95
2023-02-11T01:23:39.469Z,4.95
2023-02-11T01:26:06.150Z,4.95
2023-02-11T01:28:33.464Z,4.96
2023-02-11T01:31:03.635Z,4.95
2023-02-11T01:33:30.511Z,4.94
2023-02-11T01:36:01.463Z,4.92
2023-02-11T01:38:28.174Z,4.93
2023-02-11T01:40:58.181Z,4.92
2023-02-11T01:43:27.248Z,4.90
2023-02-11T01:46:04.463Z,4.89
2023-02-11T01:48:38.698Z,4.87
2023-02-11T01:51:20.870Z,4.85
2023-02-11T01:54:06.958Z,4.83
2023-02-11T01:56:55.956Z,4.83
2023-02-11T01:59:26.809Z,4.84
2023-02-11T02:01:59.306Z,4.84
2023-02-11T02:04:31.546Z,4.84
2023-02-11T02:07:06.354Z,4.86
2023-02-11T02:09:39.623Z,4.88
2023-02-11T02:12:06.479Z,4.90
2023-02-11T02:14:33.180Z,4.88
2023-02-11T02:16:59.877Z,4.89
2023-02-11T02:20:09.057Z,4.88
2023-02-11T02:22:56.220Z,4.91
2023-02-11T02:25:48.117Z,4.90
2023-02-11T02:28:44.968Z,4.93
2023-02-11T02:31:50.648Z,4.93
2023-02-11T02:34:29.106Z,4.93
2023-02-11T02:37:04.446Z,4.92
2023-02-11T02:39:35.588Z,4.95
2023-02-11T02:42:03.440Z,4.94
2023-02-11T02:44:31.005Z,4.96
2023-02-11T02:46:57.852Z,4.98
2023-02-11T02:49:24.578Z,4.99
2023-02-11T02:52:01.863Z,5.04
2023-02-11T02:54:41.176Z,5.06
2023-02-11T02:57:21.139Z,5.07
2023-02-11T03:00:07.576Z,5.09
2023-02-11T03:02:36.988Z,5.08
2023-02-11T03:05:12.207Z,5.08
2023-02-11T03:07:49.067Z,5.13
2023-02-11T03:10:21.620Z,5.15
2023-02-11T03:12:49.507Z,5.13
2023-02-11T03:15:18.224Z,5.17
2023-02-11T03:17:48.546Z,5.19
2023-02-11T03:20:18.711Z,5.23
2023-02-11T03:22:50.777Z,5.22
2023-02-11T03:25:17.915Z,5.25
2023-02-11T03:27:52.093Z,5.29
2023-02-11T03:30:30.580Z,5.32
2023-02-11T03:33:34.606Z,5.34
2023-02-11T03:36:07.623Z,5.35
2023-02-11T03:38:38.250Z,5.37
2023-02-11T03:41:07.768Z,5.35
2023-02-11T03:43:42.813Z,5.36
2023-02-11T03:46:11.516Z,5.40
2023-02-11T03:48:42.327Z,5.42
2023-02-11T03:51:12.382Z,5.44
2023-02-11T03:53:42.924Z,5.43
2023-02-11T03:56:15.271Z,5.47
2023-02-11T03:58:44.468Z,5.48
2023-02-11T04:01:11.536Z,5.48
2023-02-11T04:03:38.336Z,5.48
2023-02-11T04:06:05.238Z,5.50
2023-02-11T04:08:32.807Z,5.50
2023-02-11T04:10:59.504Z,5.51
2023-02-11T04:13:26.330Z,5.50
2023-02-11T04:15:53.415Z,5.51
2023-02-11T04:18:20.424Z,5.54
2023-02-11T04:20:48.055Z,5.53
2023-02-11T04:23:14.724Z,5.55
2023-02-11T04:25:42.361Z,5.55
2023-02-11T04:28:09.075Z,5.57
2023-02-11T04:30:35.720Z,5.57
2023-02-11T04:33:02.370Z,5.58
2023-02-11T04:35:29.025Z,5.61
2023-02-11T04:37:55.643Z,5.63
2023-02-11T04:40:22.334Z,5.64
2023-02-11T04:42:48.962Z,5.67
2023-02-11T04:45:15.671Z,5.68
2023-02-11T04:47:42.314Z,5.67
2023-02-11T04:50:09.208Z,5.69
2023-02-11T04:52:35.874Z,5.72
2023-02-11T04:55:02.508Z,5.73
2023-02-11T04:57:29.133Z,5.74
2023-02-11T04:59:55.817Z,5.76
2023-02-11T05:02:22.794Z,5.74
2023-02-11T05:04:49.443Z,5.73
2023-02-11T05:07:16.238Z,5.77
2023-02-11T05:09:42.884Z,5.78
2023-02-11T05:12:09.675Z,5.79
2023-02-11T05:14:36.339Z,5.80
2023-02-11T05:17:03.079Z,5.81
2023-02-11T05:19:31.882Z,5.83
2023-02-11T05:22:02.999Z,5.83
2023-02-11T05:24:32.140Z,5.87
2023-02-11T05:26:59.192Z,5.90
2023-02-11T05:29:26.031Z,5.90
2023-02-11T05:31:53.089Z,5.91
2023-02-11T05:34:19.767Z,5.92
2023-02-11T05:36:46.409Z,5.92
2023-02-11T05:39:13.067Z,5.92
2023-02-11T05:41:39.756Z,5.93
2023-02-11T05:44:06.410Z,5.94
2023-02-11T05:46:33.106Z,5.94
2023-02-11T05:48:59.840Z,5.92
2023-02-11T05:51:26.518Z,5.93
2023-02-11T05:53:53.311Z,5.93
2023-02-11T05:56:20.013Z,5.95
2023-02-11T05:58:46.832Z,5.95
2023-02-11T06:01:13.520Z,5.95
2023-02-11T06:03:40.340Z,5.96
2023-02-11T06:06:11.855Z,5.90
2023-02-11T06:08:39.499Z,5.96
2023-02-11T06:11:06.217Z,5.98
2023-02-11T06:13:32.988Z,5.97
2023-02-11T06:16:01.370Z,5.97
2023-02-11T06:18:28.839Z,5.95
2023-02-11T06:20:55.576Z,5.98
2023-02-11T06:23:22.598Z,5.98
2023-02-11T06:25:50.100Z,5.97
2023-02-11T06:28:17.076Z,6.00
2023-02-11T06:30:43.873Z,5.99
2023-02-11T06:33:10.633Z,5.98
2023-02-11T06:35:40.335Z,6.03
2023-02-11T06:38:07.168Z,5.99
2023-02-11T06:40:33.846Z,5.99
2023-02-11T06:43:00.500Z,5.98
2023-02-11T06:45:27.155Z,6.03
2023-02-11T06:47:53.811Z,6.02
2023-02-11T06:50:20.536Z,6.04
2023-02-11T06:52:47.387Z,6.04
2023-02-11T06:55:14.285Z,6.02
2023-02-11T06:57:40.996Z,6.06
2023-02-11T07:00:08.440Z,6.03
2023-02-11T07:02:35.844Z,6.06
2023-02-11T07:05:02.332Z,6.07
2023-02-11T07:07:28.828Z,6.07
2023-02-11T07:09:55.303Z,6.07
2023-02-11T07:12:21.776Z,6.09
2023-02-11T07:14:48.245Z,6.07
2023-02-11T07:17:14.802Z,6.08
2023-02-11T07:19:41.352Z,6.08
2023-02-11T07:22:07.811Z,6.08
2023-02-11T07:24:34.285Z,6.12
2023-02-11T07:27:00.767Z,6.11
2023-02-11T07:29:27.403Z,6.12
2023-02-11T07:31:53.985Z,6.15
2023-02-11T07:34:20.572Z,6.15
2023-02-11T07:36:48.850Z,6.15
2023-02-11T07:39:15.436Z,6.16
2023-02-11T07:41:44.389Z,6.16
2023-02-11T07:44:10.886Z,6.17
2023-02-11T07:46:37.372Z,6.15
2023-02-11T07:49:04.211Z,6.16
2023-02-11T07:51:31.377Z,6.10
2023-02-11T07:53:59.202Z,6.12
2023-02-11T07:56:26.498Z,6.12
2023-02-11T07:58:53.029Z,6.13
2023-02-11T08:01:24.887Z,6.13
2023-02-11T08:03:51.827Z,6.14
2023-02-11T08:06:20.330Z,6.13
2023-02-11T08:08:47.147Z,6.15
2023-02-11T08:11:18.618Z,6.12
2023-02-11T08:13:45.443Z,6.15
2023-02-11T08:16:23.632Z,6.15
2023-02-11T08:18:51.256Z,6.17
2023-02-11T08:21:19.164Z,6.18
2023-02-11T08:23:46.433Z,6.18
2023-02-11T08:26:22.407Z,6.18
2023-02-11T08:28:51.019Z,6.20
2023-02-11T08:31:26.599Z,6.22
2023-02-11T08:33:54.650Z,6.21
2023-02-11T08:36:23.920Z,6.23
2023-02-11T08:38:50.385Z,6.24
2023-02-11T08:41:17.722Z,6.26
2023-02-11T08:43:45.390Z,6.25
2023-02-11T08:46:14.659Z,6.28
2023-02-11T08:48:41.139Z,6.30
2023-02-11T08:51:09.697Z,6.30
2023-02-11T08:53:36.780Z,6.32
2023-02-11T08:56:03.314Z,6.31
2023-02-11T08:58:29.865Z,6.31
2023-02-11T09:00:56.432Z,6.32
2023-02-11T09:03:23.115Z,6.35
2023-02-11T09:05:53.026Z,6.32
2023-02-11T09:08:20.716Z,6.33
2023-02-11T09:10:47.691Z,6.38
2023-02-11T09:13:14.536Z,6.38
2023-02-11T09:15:45.193Z,6.41
2023-02-11T09:18:12.304Z,6.42
2023-02-11T09:20:38.928Z,6.45
2023-02-11T09:23:05.575Z,6.47
2023-02-11T09:25:32.240Z,6.48
2023-02-11T09:27:58.924Z,6.50
2023-02-11T09:30:25.616Z,6.52
2023-02-11T09:32:52.243Z,6.50
2023-02-11T09:35:19.050Z,6.55
2023-02-11T09:37:45.727Z,6.55
2023-02-11T09:40:14.558Z,6.56
2023-02-11T09:43:11.622Z,6.57
2023-02-11T09:45:38.468Z,6.56
2023-02-11T09:48:12.432Z,6.58
2023-02-11T09:50:44.150Z,6.63
2023-02-11T09:53:24.052Z,6.63
2023-02-11T09:56:00.197Z,6.65
2023-02-11T09:58:30.523Z,6.63
2023-02-11T10:01:25.137Z,6.64
2023-02-11T10:04:07.058Z,6.66
2023-02-11T10:06:41.492Z,6.67
2023-02-11T10:09:44.663Z,6.69
2023-02-11T10:12:44.592Z,6.74
2023-02-11T10:15:49.522Z,6.80
2023-02-11T10:18:28.088Z,6.81
2023-02-11T10:21:09.120Z,6.83
2023-02-11T10:23:39.669Z,6.86
2023-02-11T10:26:13.200Z,6.87
2023-02-11T10:28:50.203Z,6.88
2023-02-11T10:31:27.554Z,6.91
2023-02-11T10:34:00.411Z,6.91
2023-02-11T10:36:35.189Z,6.94
2023-02-11T10:39:16.549Z,6.95
2023-02-11T10:42:09.446Z,6.98
2023-02-11T10:44:41.520Z,6.96
2023-02-11T10:47:18.757Z,6.96
2023-02-11T10:49:48.999Z,6.98
2023-02-11T10:52:27.793Z,7.01
2023-02-11T10:55:14.321Z,7.03
2023-02-11T10:57:53.814Z,7.03
2023-02-11T11:00:42.368Z,7.02
2023-02-11T11:03:27.321Z,6.94
2023-02-11T11:06:01.892Z,6.94
2023-02-11T11:08:51.734Z,6.98
2023-02-11T11:11:23.985Z,6.93
2023-02-11T11:13:53.398Z,6.94
2023-02-11T11:16:21.981Z,6.95
2023-02-11T11:19:13.600Z,6.96
2023-02-11T11:21:49.171Z,6.95
2023-02-11T11:24:44.263Z,6.96
2023-02-11T11:27:19.243Z,6.98
2023-02-11T11:29:49.988Z,6.93
2023-02-11T11:32:32.686Z,6.98
2023-02-11T11:35:03.463Z,6.95
2023-02-11T11:37:33.028Z,6.95
2023-02-11T11:40:22.047Z,6.94
2023-02-11T11:43:04.216Z,6.94
2023-02-11T11:45:30.937Z,6.93
2023-02-11T11:48:15.940Z,6.92
2023-02-11T11:50:44.667Z,6.98
2023-02-11T11:53:23.063Z,6.99
2023-02-11T11:56:09.772Z,6.98
2023-02-11T11:58:36.688Z,6.95
2023-02-11T12:01:09.288Z,6.99
2023-02-11T12:04:14.112Z,7.01
2023-02-11T12:07:13.182Z,7.00
2023-02-11T12:10:23.649Z,7.03
2023-02-11T12:13:07.014Z,7.04
2023-02-11T12:15:40.994Z,7.06
2023-02-11T12:18:32.868Z,7.06
2023-02-11T12:21:14.898Z,7.06
2023-02-11T12:23:59.972Z,7.07
2023-02-11T12:26:38.252Z,7.07
2023-02-11T12:29:24.027Z,7.08
2023-02-11T12:32:17.563Z,7.10
2023-02-11T12:35:19.504Z,7.13
2023-02-11T12:38:18.577Z,7.15
2023-02-11T12:41:10.132Z,7.17
2023-02-11T12:43:42.235Z,7.15
2023-02-11T12:46:33.798Z,7.16
2023-02-11T12:49:22.495Z,7.15
2023-02-11T12:52:11.316Z,7.18
2023-02-11T12:54:56.273Z,7.21
2023-02-11T12:57:26.603Z,7.22
2023-02-11T13:00:00.552Z,7.24
2023-02-11T13:02:36.958Z,7.23
2023-02-11T13:05:28.499Z,7.20
2023-02-11T13:08:02.844Z,7.21
2023-02-11T13:10:36.032Z,7.22
2023-02-11T13:13:18.787Z,7.24
2023-02-11T13:16:03.895Z,7.26
2023-02-11T13:18:40.075Z,7.29
2023-02-11T13:21:16.210Z,7.28
2023-02-11T13:23:59.763Z,7.25
2023-02-11T13:26:40.566Z,7.23
2023-02-11T13:29:33.149Z,7.25
2023-02-11T13:32:09.540Z,7.25
2023-02-11T13:34:42.334Z,7.28
2023-02-11T13:37:29.378Z,7.35
2023-02-11T13:40:18.944Z,7.38
2023-02-11T13:42:56.149Z,7.37
2023-02-11T13:45:38.431Z,7.36
2023-02-11T13:48:15.394Z,7.32
2023-02-11T13:50:51.815Z,7.33
2023-02-11T13:53:19.194Z,7.28
2023-02-11T13:55:48.968Z,7.31
2023-02-11T13:58:17.324Z,7.33
2023-02-11T14:00:51.214Z,7.34
2023-02-11T14:03:50.937Z,7.35
2023-02-11T14:06:43.371Z,7.35
2023-02-11T14:09:10.089Z,7.34
2023-02-11T14:12:20.719Z,7.34
2023-02-11T14:15:07.731Z,7.36
2023-02-11T14:17:34.966Z,7.34
2023-02-11T14:20:04.574Z,7.34
2023-02-11T14:22:47.174Z,7.36
2023-02-11T14:25:25.277Z,7.35
2023-02-11T14:28:25.762Z,7.34
2023-02-11T14:31:03.671Z,7.32
2023-02-11T14:33:51.468Z,7.33
2023-02-11T14:36:30.493Z,7.32
2023-02-11T14:39:13.714Z,7.29
2023-02-11T14:41:52.926Z,7.29
2023-02-11T14:44:25.148Z,7.32
2023-02-11T14:46:53.653Z,7.32
2023-02-11T14:49:30.775Z,7.32
2023-02-11T14:52:17.003Z,7.30
2023-02-11T14:54:44.812Z,7.32
2023-02-11T14:57:15.827Z,7.32
2023-02-11T15:00:02.357Z,7.32
2023-02-11T15:02:37.514Z,7.36
2023-02-11T15:05:26.483Z,7.37
2023-02-11T15:07:59.352Z,7.37
2023-02-11T15:10:32.790Z,7.37
2023-02-11T15:13:02.000Z,7.39
2023-02-11T15:15:29.446Z,7.42
2023-02-11T15:17:59.389Z,7.38
2023-02-11T15:20:29.030Z,7.39
2023-02-11T15:22:59.888Z,7.39
2023-02-11T15:25:28.058Z,7.41
2023-02-11T15:27:57.041Z,7.43
2023-02-11T15:30:23.725Z,7.45
2023-02-11T15:32:58.681Z,7.46
2023-02-11T15:35:28.482Z,7.48
2023-02-11T15:37:56.521Z,7.50
2023-02-11T15:40:32.220Z,7.47
2023-02-11T15:43:09.978Z,7.46
2023-02-11T15:45:40.218Z,7.46
2023-02-11T15:48:12.536Z,7.47
2023-02-11T15:50:41.249Z,7.48
2023-02-11T15:53:26.448Z,7.49
2023-02-11T15:56:01.595Z,7.51
2023-02-11T15:58:28.540Z,7.53
2023-02-11T16:00:59.604Z,7.50
2023-02-11T16:03:32.758Z,7.50
2023-02-11T16:06:20.653Z,7.48
2023-02-11T16:08:58.918Z,7.47
2023-02-11T16:11:30.389Z,7.47
2023-02-11T16:13:59.044Z,7.45
2023-02-11T16:16:31.862Z,7.48
2023-02-11T16:19:06.274Z,7.43
2023-02-11T16:21:38.829Z,7.45
2023-02-11T16:24:07.861Z,7.45
2023-02-11T16:26:39.272Z,7.45
2023-02-11T16:29:11.347Z,7.40
2023-02-11T16:31:41.163Z,7.38
2023-02-11T16:34:18.434Z,7.41
2023-02-11T16:36:46.110Z,7.40
2023-02-11T16:39:13.480Z,7.43
2023-02-11T16:41:40.596Z,7.42
2023-02-11T16:44:07.257Z,7.43
2023-02-11T16:46:34.340Z,7.39
2023-02-11T16:49:11.440Z,7.42
2023-02-11T16:51:39.933Z,7.39
2023-02-11T16:54:06.636Z,7.39
2023-02-11T16:56:33.254Z,7.40
2023-02-11T16:59:00.595Z,7.39
2023-02-11T17:01:27.535Z,7.38
2023-02-11T17:03:54.312Z,7.40
2023-02-11T17:06:20.971Z,7.42
2023-02-11T17:08:47.635Z,7.39
2023-02-11T17:11:16.658Z,7.39
2023-02-11T17:13:44.026Z,7.38
2023-02-11T17:16:18.120Z,7.38
2023-02-11T17:18:45.355Z,7.40
2023-02-11T17:21:15.523Z,7.42
2023-02-11T17:23:42.636Z,7.42
2023-02-11T17:26:09.328Z,7.39
2023-02-11T17:28:36.036Z,7.38
2023-02-11T17:31:07.631Z,7.37
2023-02-11T17:33:36.187Z,7.36
2023-02-11T17:36:07.776Z,7.36
2023-02-11T17:38:35.326Z,7.36
2023-02-11T17:41:03.063Z,7.36
2023-02-11T17:43:29.725Z,7.37
2023-02-11T17:45:56.585Z,7.38
2023-02-11T17:48:23.975Z,7.39
2023-02-11T17:50:50.994Z,7.38
2023-02-11T17:53:17.632Z,7.36
2023-02-11T17:55:44.260Z,7.37
2023-02-11T17:58:10.891Z,7.38
2023-02-11T18:00:37.559Z,7.35
2023-02-11T18:03:04.381Z,7.36
2023-02-11T18:05:37.546Z,7.36
2023-02-11T18:08:06.341Z,7.34
2023-02-11T18:10:33.755Z,7.33
2023-02-11T18:13:01.568Z,7.33
2023-02-11T18:15:28.282Z,7.32
2023-02-11T18:17:55.516Z,7.32
2023-02-11T18:20:22.193Z,7.34
2023-02-11T18:22:48.828Z,7.31
2023-02-11T18:25:16.044Z,7.31
2023-02-11T18:27:43.099Z,7.32
2023-02-11T18:30:19.505Z,7.27
2023-02-11T18:32:46.286Z,7.29
2023-02-11T18:35:15.150Z,7.29
2023-02-11T18:37:43.116Z,7.27
2023-02-11T18:40:10.950Z,7.26
2023-02-11T18:42:37.944Z,7.26
2023-02-11T18:45:12.118Z,7.25
2023-02-11T18:47:40.054Z,7.28
2023-02-11T18:50:11.159Z,7.29
2023-02-11T18:52:38.610Z,7.29
2023-02-11T18:55:06.109Z,7.29
2023-02-11T18:57:32.781Z,7.28
2023-02-11T18:59:59.432Z,7.28
2023-02-11T19:02:26.272Z,7.29
2023-02-11T19:04:52.913Z,7.24
2023-02-11T19:07:19.585Z,7.27
2023-02-11T19:09:46.217Z,7.27
2023-02-11T19:12:12.882Z,7.25
2023-02-11T19:14:39.531Z,7.26
2023-02-11T19:17:07.570Z,7.27
2023-02-11T19:19:35.539Z,7.28
2023-02-11T19:22:03.506Z,7.29
2023-02-11T19:24:30.556Z,7.27
2023-02-11T19:27:00.393Z,7.25
2023-02-11T19:29:27.616Z,7.23
2023-02-11T19:31:54.595Z,7.27
2023-02-11T19:34:21.592Z,7.28
2023-02-11T19:36:49.506Z,7.26
2023-02-11T19:39:16.807Z,7.27
2023-02-11T19:41:43.483Z,7.28
2023-02-11T19:44:10.434Z,7.27
2023-02-11T19:46:40.731Z,7.28
2023-02-11T19:49:07.692Z,7.29
2023-02-11T19:51:36.822Z,7.28
2023-02-11T19:54:03.671Z,7.28
2023-02-11T19:56:30.280Z,7.28
2023-02-11T19:58:57.324Z,7.26
2023-02-11T20:01:25.580Z,7.26
2023-02-11T20:03:54.870Z,7.23
2023-02-11T20:06:27.973Z,7.24
2023-02-11T20:09:00.074Z,7.24
2023-02-11T20:11:29.645Z,7.26
2023-02-11T20:13:57.021Z,7.27
2023-02-11T20:16:40.683Z,7.26
2023-02-11T20:19:16.693Z,7.24
2023-02-11T20:21:46.701Z,7.23
2023-02-11T20:24:13.992Z,7.21
2023-02-11T20:26:42.261Z,7.20
2023-02-11T20:29:09.663Z,7.17
2023-02-11T20:31:36.676Z,7.18
2023-02-11T20:34:03.419Z,7.17
2023-02-11T20:36:34.058Z,7.17
2023-02-11T20:39:02.202Z,7.17
2023-02-11T20:41:34.070Z,7.18
2023-02-11T20:44:04.122Z,7.18
2023-02-11T20:46:33.128Z,7.19
2023-02-11T20:49:01.017Z,7.19
2023-02-11T20:51:31.440Z,7.19
2023-02-11T20:53:58.443Z,7.17
2023-02-11T20:56:28.794Z,7.16
2023-02-11T20:58:57.598Z,7.18
2023-02-11T21:01:27.091Z,7.18
2023-02-11T21:03:59.276Z,7.20
2023-02-11T21:06:30.951Z,7.20
2023-02-11T21:08:57.623Z,7.21
2023-02-11T21:11:24.277Z,7.22
2023-02-11T21:13:51.039Z,7.21
2023-02-11T21:16:22.498Z,7.21
2023-02-11T21:18:50.320Z,7.22
2023-02-11T21:21:18.602Z,7.21
2023-02-11T21:23:45.923Z,7.20
2023-02-11T21:26:15.078Z,7.19
2023-02-11T21:28:41.873Z,7.17
2023-02-11T21:31:09.680Z,7.14
2023-02-11T21:33:36.400Z,7.17
2023-02-11T21:36:04.394Z,7.18
2023-02-11T21:38:31.154Z,7.18
2023-02-11T21:41:05.547Z,7.18
2023-02-11T21:43:32.590Z,7.17
2023-02-11T21:45:59.538Z,7.17
2023-02-11T21:48:26.684Z,7.15
2023-02-11T21:50:53.877Z,7.13
2023-02-11T21:53:20.500Z,7.15
2023-02-11T21:55:47.166Z,7.13
2023-02-11T21:58:14.253Z,7.13
2023-02-11T22:00:40.984Z,7.13
2023-02-11T22:03:07.835Z,7.12
2023-02-11T22:05:34.446Z,7.11
2023-02-11T22:08:01.103Z,7.10
2023-02-11T22:10:27.777Z,7.11
2023-02-11T22:12:54.413Z,7.10
2023-02-11T22:15:21.097Z,7.09
2023-02-11T22:17:47.749Z,7.10
2023-02-11T22:20:16.777Z,7.08
2023-02-11T22:22:43.436Z,7.09
2023-02-11T22:25:10.140Z,7.06
2023-02-11T22:27:36.835Z,7.05
2023-02-11T22:30:04.624Z,7.01
2023-02-11T22:32:31.262Z,7.02
2023-02-11T22:34:57.904Z,7.03
2023-02-11T22:37:24.508Z,7.04
2023-02-11T22:39:51.154Z,7.05
2023-02-11T22:42:17.818Z,7.05
2023-02-11T22:44:44.771Z,7.04
2023-02-11T22:47:11.437Z,7.04
2023-02-11T22:49:39.451Z,7.04
2023-02-11T22:52:06.096Z,7.03
2023-02-11T22:54:32.772Z,7.01
2023-02-11T22:56:59.420Z,7.00
2023-02-11T22:59:26.033Z,7.00
2023-02-11T23:01:52.784Z,7.02
2023-02-11T23:04:19.542Z,7.02
2023-02-11T23:06:47.694Z,6.99
2023-02-11T23:09:14.435Z,7.03
2023-02-11T23:11:41.513Z,7.01
2023-02-11T23:14:10.007Z,7.00
2023-02-11T23:16:36.718Z,6.99
2023-02-11T23:19:06.406Z,7.00
2023-02-11T23:21:36.594Z,7.01
2023-02-11T23:24:10.141Z,7.00
2023-02-11T23:26:39.201Z,6.98
2023-02-11T23:29:06.195Z,6.95
2023-02-11T23:31:37.408Z,6.94
2023-02-11T23:34:04.554Z,6.91
2023-02-11T23:36:32.256Z,6.92
2023-02-11T23:38:58.977Z,6.90
2023-02-11T23:41:26.134Z,6.90
2023-02-11T23:43:55.157Z,6.90
2023-02-11T23:46:23.803Z,6.88
2023-02-11T23:48:51.501Z,6.83
2023-02-11T23:51:18.765Z,6.84
2023-02-11T23:53:46.144Z,6.80
2023-02-11T23:56:19.908Z,6.81
2023-02-11T23:58:51.454Z,6.78
